createdAt,value
2023-02-22T00:00:51.631Z,1010.51
2023-02-22T00:01:51.867Z,1010.51
2023-02-22T00:02:51.642Z,1010.49
2023-02-22T00:03:51.628Z,1010.49
2023-02-22T00:04:51.611Z,1010.46
2023-02-22T00:05:51.606Z,1010.47
2023-02-22T00:06:51.611Z,1010.44
2023-02-22T00:07:51.600Z,1010.44
2023-02-22T00:08:51.594Z,1010.44
2023-02-22T00:09:51.582Z,1010.43
2023-02-22T00:10:51.585Z,1010.42
2023-02-22T00:11:51.576Z,1010.43
2023-02-22T00:12:51.572Z,1010.42
2023-02-22T00:13:51.567Z,1010.40
2023-02-22T00:14:51.946Z,1010.40
2023-02-22T00:15:51.555Z,1010.37
2023-02-22T00:16:51.547Z,1010.36
2023-02-22T00:17:51.546Z,1010.35
2023-02-22T00:18:51.537Z,1010.37
2023-02-22T00:19:51.533Z,1010.34
2023-02-22T00:20:51.530Z,1010.32
2023-02-22T00:21:51.525Z,1010.31
2023-02-22T00:22:51.519Z,1010.31
2023-02-22T00:23:51.513Z,1010.33
2023-02-22T00:24:51.508Z,1010.30
2023-02-22T00:25:51.505Z,1010.28
2023-02-22T00:26:51.496Z,1010.28
2023-02-22T00:27:51.495Z,1010.29
2023-02-22T00:28:51.491Z,1010.32
2023-02-22T00:29:51.481Z,1010.27
2023-02-22T00:30:51.496Z,1010.26
2023-02-22T00:31:51.604Z,1010.26
2023-02-22T00:32:51.464Z,1010.21
2023-02-22T00:33:51.462Z,1010.21
2023-02-22T00:34:51.456Z,1010.19
2023-02-22T00:35:51.454Z,1010.24
2023-02-22T00:36:51.441Z,1010.22
2023-02-22T00:37:51.445Z,1010.19
2023-02-22T00:38:51.439Z,1010.23
2023-02-22T00:39:51.434Z,1010.19
2023-02-22T00:40:51.436Z,1010.20
2023-02-22T00:41:51.463Z,1010.24
2023-02-22T00:42:51.416Z,1010.23
2023-02-22T00:43:51.420Z,1010.18
2023-02-22T00:44:51.403Z,1010.19
2023-02-22T00:45:51.432Z,1010.15
2023-02-22T00:46:51.412Z,1010.13
2023-02-22T00:47:51.400Z,1010.12
2023-02-22T00:48:51.384Z,1010.10
2023-02-22T00:49:51.386Z,1010.14
2023-02-22T00:50:51.372Z,1010.12
2023-02-22T00:51:51.378Z,1010.12
2023-02-22T00:52:51.369Z,1010.16
2023-02-22T00:53:51.360Z,1010.11
2023-02-22T00:54:51.353Z,1010.10
2023-02-22T00:55:51.359Z,1010.06
2023-02-22T00:56:51.343Z,1010.10
2023-02-22T00:57:51.342Z,1010.13
2023-02-22T00:58:51.330Z,1010.11
2023-02-22T00:59:51.331Z,1010.07
2023-02-22T01:00:51.371Z,1010.08
2023-02-22T01:01:51.319Z,1010.07
2023-02-22T01:02:51.327Z,1010.10
2023-02-22T01:03:51.305Z,1010.00
2023-02-22T01:04:51.306Z,1010.03
2023-02-22T01:05:51.302Z,1010.00
2023-02-22T01:06:51.286Z,1009.96
2023-02-22T01:07:51.288Z,1009.95
2023-02-22T01:08:51.278Z,1009.98
2023-02-22T01:09:51.273Z,1009.97
2023-02-22T01:10:51.266Z,1009.99
2023-02-22T01:11:51.262Z,1009.94
2023-02-22T01:12:51.283Z,1009.93
2023-02-22T01:13:51.254Z,1009.96
2023-02-22T01:14:51.658Z,1009.90
2023-02-22T01:15:51.242Z,1009.94
2023-02-22T01:16:51.341Z,1009.89
2023-02-22T01:17:51.238Z,1009.87
2023-02-22T01:18:51.250Z,1009.87
2023-02-22T01:19:53.858Z,1009.83
2023-02-22T01:20:51.213Z,1009.77
2023-02-22T01:21:51.220Z,1009.81
2023-02-22T01:22:51.207Z,1009.78
2023-02-22T01:23:51.203Z,1009.77
2023-02-22T01:24:51.196Z,1009.73
2023-02-22T01:25:51.195Z,1009.74
2023-02-22T01:26:51.183Z,1009.69
2023-02-22T01:27:51.177Z,1009.72
2023-02-22T01:28:51.169Z,1009.72
2023-02-22T01:29:51.167Z,1009.72
2023-02-22T01:30:51.230Z,1009.69
2023-02-22T01:31:51.183Z,1009.70
2023-02-22T01:32:51.176Z,1009.68
2023-02-22T01:33:51.146Z,1009.68
2023-02-22T01:34:51.158Z,1009.67
2023-02-22T01:35:51.135Z,1009.70
2023-02-22T01:36:51.126Z,1009.69
2023-02-22T01:37:51.124Z,1009.68
2023-02-22T01:38:51.123Z,1009.70
2023-02-22T01:39:51.120Z,1009.66
2023-02-22T01:40:51.111Z,1009.67
2023-02-22T01:41:51.099Z,1009.69
2023-02-22T01:42:51.102Z,1009.67
2023-02-22T01:43:51.096Z,1009.65
2023-02-22T01:44:51.080Z,1009.64
2023-02-22T01:45:51.173Z,1009.58
2023-02-22T01:46:51.068Z,1009.63
2023-02-22T01:47:51.067Z,1009.56
2023-02-22T01:48:51.060Z,1009.56
2023-02-22T01:49:51.054Z,1009.52
2023-02-22T01:50:51.067Z,1009.51
2023-02-22T01:51:51.048Z,1009.52
2023-02-22T01:52:51.050Z,1009.52
2023-02-22T01:53:51.035Z,1009.51
2023-02-22T01:54:51.038Z,1009.51
2023-02-22T01:55:51.032Z,1009.51
2023-02-22T01:56:51.016Z,1009.56
2023-02-22T01:57:51.011Z,1009.48
2023-02-22T01:58:51.002Z,1009.50
2023-02-22T01:59:51.002Z,1009.56
2023-02-22T02:00:51.007Z,1009.47
2023-02-22T02:01:50.992Z,1009.51
2023-02-22T02:02:50.985Z,1009.45
2023-02-22T02:03:51.004Z,1009.46
2023-02-22T02:04:51.027Z,1009.46
2023-02-22T02:05:50.968Z,1009.46
2023-02-22T02:06:50.989Z,1009.45
2023-02-22T02:07:50.955Z,1009.44
2023-02-22T02:08:50.948Z,1009.44
2023-02-22T02:09:50.952Z,1009.45
2023-02-22T02:10:50.945Z,1009.43
2023-02-22T02:11:50.933Z,1009.46
2023-02-22T02:12:50.944Z,1009.40
2023-02-22T02:13:50.924Z,1009.41
2023-02-22T02:14:50.923Z,1009.40
2023-02-22T02:15:50.916Z,1009.35
2023-02-22T02:16:50.998Z,1009.42
2023-02-22T02:17:50.959Z,1009.39
2023-02-22T02:18:50.894Z,1009.36
2023-02-22T02:19:51.343Z,1009.36
2023-02-22T02:20:50.885Z,1009.35
2023-02-22T02:21:50.881Z,1009.36
2023-02-22T02:22:50.896Z,1009.38
2023-02-22T02:23:50.872Z,1009.36
2023-02-22T02:24:50.912Z,1009.38
2023-02-22T02:25:50.860Z,1009.35
2023-02-22T02:26:50.862Z,1009.34
2023-02-22T02:27:50.861Z,1009.30
2023-02-22T02:28:50.858Z,1009.30
2023-02-22T02:29:50.891Z,1009.31
2023-02-22T02:30:50.847Z,1009.32
2023-02-22T02:31:51.028Z,1009.26
2023-02-22T02:32:50.857Z,1009.30
2023-02-22T02:33:50.888Z,1009.30
2023-02-22T02:34:50.888Z,1009.30
2023-02-22T02:35:50.839Z,1009.28
2023-02-22T02:36:50.798Z,1009.24
2023-02-22T02:37:50.796Z,1009.24
2023-02-22T02:38:50.880Z,1009.19
2023-02-22T02:39:50.784Z,1009.20
2023-02-22T02:40:50.783Z,1009.20
2023-02-22T02:41:50.775Z,1009.18
2023-02-22T02:42:50.766Z,1009.19
2023-02-22T02:43:50.774Z,1009.21
2023-02-22T02:44:50.755Z,1009.18
2023-02-22T02:45:50.754Z,1009.17
2023-02-22T02:46:50.772Z,1009.17
2023-02-22T02:47:50.740Z,1009.17
2023-02-22T02:48:50.732Z,1009.14
2023-02-22T02:49:50.731Z,1009.12
2023-02-22T02:50:50.726Z,1009.11
2023-02-22T02:51:50.719Z,1009.11
2023-02-22T02:52:50.711Z,1009.09
2023-02-22T02:53:50.709Z,1009.09
2023-02-22T02:54:50.720Z,1009.09
2023-02-22T02:55:50.694Z,1009.11
2023-02-22T02:56:50.705Z,1009.10
2023-02-22T02:57:50.703Z,1009.12
2023-02-22T02:58:50.684Z,1009.07
2023-02-22T02:59:50.677Z,1009.06
2023-02-22T03:00:50.681Z,1009.10
2023-02-22T03:01:50.722Z,1009.06
2023-02-22T03:02:50.657Z,1009.06
2023-02-22T03:03:50.654Z,1009.05
2023-02-22T03:04:50.657Z,1009.02
2023-02-22T03:05:50.646Z,1009.02
2023-02-22T03:06:50.640Z,1009.01
2023-02-22T03:07:50.636Z,1008.98
2023-02-22T03:08:50.636Z,1008.98
2023-02-22T03:09:50.622Z,1008.99
2023-02-22T03:10:50.633Z,1009.01
2023-02-22T03:11:50.609Z,1008.98
2023-02-22T03:12:50.604Z,1008.96
2023-02-22T03:13:50.600Z,1008.96
2023-02-22T03:14:50.593Z,1008.94
2023-02-22T03:15:50.587Z,1008.93
2023-02-22T03:16:50.582Z,1008.91
2023-02-22T03:17:50.576Z,1008.90
2023-02-22T03:18:50.568Z,1008.93
2023-02-22T03:19:50.565Z,1008.91
2023-02-22T03:20:50.557Z,1008.89
2023-02-22T03:21:50.555Z,1008.90
2023-02-22T03:22:50.548Z,1008.89
2023-02-22T03:23:50.550Z,1008.89
2023-02-22T03:24:50.540Z,1008.96
2023-02-22T03:25:50.546Z,1008.92
2023-02-22T03:26:50.547Z,1008.89
2023-02-22T03:27:50.530Z,1008.88
2023-02-22T03:28:50.530Z,1008.90
2023-02-22T03:29:50.519Z,1008.92
2023-02-22T03:30:50.578Z,1008.88
2023-02-22T03:31:50.530Z,1008.88
2023-02-22T03:32:50.501Z,1008.89
2023-02-22T03:33:50.495Z,1008.88
2023-02-22T03:34:50.493Z,1008.88
2023-02-22T03:35:50.485Z,1008.86
2023-02-22T03:36:50.476Z,1008.88
2023-02-22T03:37:50.481Z,1008.89
2023-02-22T03:38:50.468Z,1008.86
2023-02-22T03:39:50.465Z,1008.87
2023-02-22T03:40:50.454Z,1008.87
2023-02-22T03:41:50.453Z,1008.88
2023-02-22T03:42:50.463Z,1008.86
2023-02-22T03:43:50.449Z,1008.89
2023-02-22T03:44:50.432Z,1008.87
2023-02-22T03:45:50.430Z,1008.86
2023-02-22T03:46:50.426Z,1008.88
2023-02-22T03:47:50.421Z,1008.90
2023-02-22T03:48:50.412Z,1008.88
2023-02-22T03:49:50.403Z,1008.87
2023-02-22T03:50:50.399Z,1008.82
2023-02-22T03:51:50.391Z,1008.82
2023-02-22T03:52:50.389Z,1008.82
2023-02-22T03:53:50.410Z,1008.83
2023-02-22T03:54:50.375Z,1008.83
2023-02-22T03:55:50.369Z,1008.84
2023-02-22T03:56:50.363Z,1008.84
2023-02-22T03:57:50.355Z,1008.90
2023-02-22T03:58:50.392Z,1008.90
2023-02-22T03:59:50.350Z,1008.90
2023-02-22T04:00:50.342Z,1008.92
2023-02-22T04:01:50.336Z,1008.91
2023-02-22T04:02:50.442Z,1008.89
2023-02-22T04:03:50.344Z,1008.91
2023-02-22T04:04:50.332Z,1008.92
2023-02-22T04:05:50.315Z,1008.93
2023-02-22T04:06:50.308Z,1008.92
2023-02-22T04:07:50.302Z,1008.94
2023-02-22T04:08:50.311Z,1009.00
2023-02-22T04:09:50.298Z,1009.04
2023-02-22T04:10:50.285Z,1009.02
2023-02-22T04:11:50.287Z,1008.95
2023-02-22T04:12:50.274Z,1008.98
2023-02-22T04:13:50.269Z,1008.98
2023-02-22T04:14:50.290Z,1009.00
2023-02-22T04:15:50.286Z,1008.93
2023-02-22T04:16:50.251Z,1008.94
2023-02-22T04:17:50.246Z,1008.96
2023-02-22T04:18:50.239Z,1008.93
2023-02-22T04:19:50.233Z,1008.88
2023-02-22T04:20:50.234Z,1008.87
2023-02-22T04:21:50.238Z,1008.91
2023-02-22T04:22:50.220Z,1008.90
2023-02-22T04:23:50.214Z,1008.92
2023-02-22T04:24:50.359Z,1008.99
2023-02-22T04:25:50.206Z,1008.99
2023-02-22T04:26:50.196Z,1008.96
2023-02-22T04:27:50.189Z,1008.98
2023-02-22T04:28:50.185Z,1008.97
2023-02-22T04:29:50.190Z,1008.94
2023-02-22T04:30:50.198Z,1009.00
2023-02-22T04:31:50.193Z,1008.97
2023-02-22T04:32:50.171Z,1008.96
2023-02-22T04:33:50.158Z,1008.92
2023-02-22T04:34:50.149Z,1008.93
2023-02-22T04:35:50.146Z,1008.89
2023-02-22T04:36:50.138Z,1008.86
2023-02-22T04:37:50.134Z,1008.86
2023-02-22T04:38:50.132Z,1008.88
2023-02-22T04:39:50.141Z,1008.89
2023-02-22T04:40:50.118Z,1008.91
2023-02-22T04:41:50.111Z,1008.88
2023-02-22T04:42:50.104Z,1008.87
2023-02-22T04:43:50.100Z,1008.83
2023-02-22T04:44:50.098Z,1008.86
2023-02-22T04:45:50.091Z,1008.82
2023-02-22T04:46:50.101Z,1008.80
2023-02-22T04:47:50.078Z,1008.78
2023-02-22T04:48:50.078Z,1008.77
2023-02-22T04:49:50.063Z,1008.80
2023-02-22T04:50:50.061Z,1008.75
2023-02-22T04:51:50.052Z,1008.74
2023-02-22T04:52:50.053Z,1008.68
2023-02-22T04:53:50.040Z,1008.70
2023-02-22T04:54:50.043Z,1008.69
2023-02-22T04:55:50.042Z,1008.68
2023-02-22T04:56:50.035Z,1008.67
2023-02-22T04:57:50.025Z,1008.75
2023-02-22T04:58:50.055Z,1008.68
2023-02-22T04:59:50.015Z,1008.70
2023-02-22T05:00:50.006Z,1008.66
2023-02-22T05:01:49.995Z,1008.67
2023-02-22T05:02:50.082Z,1008.64
2023-02-22T05:03:49.990Z,1008.63
2023-02-22T05:04:50.014Z,1008.60
2023-02-22T05:05:49.977Z,1008.62
2023-02-22T05:06:49.968Z,1008.60
2023-02-22T05:07:49.972Z,1008.57
2023-02-22T05:08:49.956Z,1008.54
2023-02-22T05:09:49.954Z,1008.57
2023-02-22T05:10:49.946Z,1008.51
2023-02-22T05:11:49.937Z,1008.53
2023-02-22T05:12:49.933Z,1008.49
2023-02-22T05:13:49.924Z,1008.53
2023-02-22T05:14:49.920Z,1008.51
2023-02-22T05:15:49.995Z,1008.51
2023-02-22T05:16:49.908Z,1008.52
2023-02-22T05:17:49.902Z,1008.47
2023-02-22T05:18:49.922Z,1008.51
2023-02-22T05:19:49.894Z,1008.49
2023-02-22T05:20:49.888Z,1008.50
2023-02-22T05:21:49.880Z,1008.50
2023-02-22T05:22:49.875Z,1008.47
2023-02-22T05:23:49.867Z,1008.46
2023-02-22T05:24:49.865Z,1008.48
2023-02-22T05:25:49.855Z,1008.50
2023-02-22T05:26:49.852Z,1008.44
2023-02-22T05:27:49.845Z,1008.45
2023-02-22T05:28:49.843Z,1008.46
2023-02-22T05:29:50.032Z,1008.42
2023-02-22T05:30:49.827Z,1008.40
2023-02-22T05:31:49.928Z,1008.39
2023-02-22T05:32:49.815Z,1008.38
2023-02-22T05:33:49.807Z,1008.36
2023-02-22T05:34:49.828Z,1008.33
2023-02-22T05:35:49.798Z,1008.31
2023-02-22T05:36:49.790Z,1008.31
2023-02-22T05:37:49.787Z,1008.27
2023-02-22T05:38:49.799Z,1008.29
2023-02-22T05:39:49.774Z,1008.25
2023-02-22T05:40:49.771Z,1008.26
2023-02-22T05:41:49.762Z,1008.27
2023-02-22T05:42:49.758Z,1008.27
2023-02-22T05:43:49.750Z,1008.26
2023-02-22T05:44:49.744Z,1008.26
2023-02-22T05:45:49.742Z,1008.29
2023-02-22T05:46:49.798Z,1008.24
2023-02-22T05:47:49.731Z,1008.27
2023-02-22T05:48:49.720Z,1008.25
2023-02-22T05:49:49.715Z,1008.26
2023-02-22T05:50:49.726Z,1008.27
2023-02-22T05:51:49.701Z,1008.23
2023-02-22T05:52:49.705Z,1008.19
2023-02-22T05:53:49.688Z,1008.22
2023-02-22T05:54:49.682Z,1008.20
2023-02-22T05:55:49.674Z,1008.21
2023-02-22T05:56:49.676Z,1008.20
2023-02-22T05:57:49.663Z,1008.17
2023-02-22T05:58:49.658Z,1008.17
2023-02-22T05:59:49.659Z,1008.12
2023-02-22T06:00:49.676Z,1008.13
2023-02-22T06:01:49.672Z,1008.12
2023-02-22T06:02:49.642Z,1008.13
2023-02-22T06:03:49.639Z,1008.14
2023-02-22T06:04:49.618Z,1008.09
2023-02-22T06:05:49.680Z,1008.09
2023-02-22T06:06:49.631Z,1008.10
2023-02-22T06:07:49.600Z,1008.13
2023-02-22T06:08:49.613Z,1008.13
2023-02-22T06:09:49.594Z,1008.10
2023-02-22T06:10:49.585Z,1008.13
2023-02-22T06:11:49.587Z,1008.10
2023-02-22T06:12:49.571Z,1008.09
2023-02-22T06:13:49.566Z,1008.10
2023-02-22T06:14:49.563Z,1008.08
2023-02-22T06:15:49.568Z,1008.09
2023-02-22T06:16:49.550Z,1008.07
2023-02-22T06:17:49.542Z,1008.07
2023-02-22T06:18:49.536Z,1008.08
2023-02-22T06:19:49.534Z,1008.06
2023-02-22T06:20:49.528Z,1008.10
2023-02-22T06:21:49.526Z,1008.12
2023-02-22T06:22:49.528Z,1008.08
2023-02-22T06:23:49.503Z,1008.06
2023-02-22T06:24:49.570Z,1008.09
2023-02-22T06:25:49.504Z,1008.05
2023-02-22T06:26:49.491Z,1008.08
2023-02-22T06:27:49.480Z,1008.07
2023-02-22T06:28:49.491Z,1008.13
2023-02-22T06:29:49.820Z,1008.09
2023-02-22T06:30:49.497Z,1008.09
2023-02-22T06:31:49.562Z,1008.08
2023-02-22T06:32:49.449Z,1008.07
2023-02-22T06:33:49.442Z,1008.11
2023-02-22T06:34:49.448Z,1008.08
2023-02-22T06:35:49.433Z,1008.10
2023-02-22T06:36:49.431Z,1008.13
2023-02-22T06:37:49.419Z,1008.12
2023-02-22T06:38:49.441Z,1008.16
2023-02-22T06:39:49.414Z,1008.10
2023-02-22T06:40:49.408Z,1008.14
2023-02-22T06:41:49.435Z,1008.13
2023-02-22T06:42:49.402Z,1008.16
2023-02-22T06:43:49.401Z,1008.11
2023-02-22T06:44:51.656Z,1008.11
2023-02-22T06:45:49.433Z,1008.11
2023-02-22T06:46:49.375Z,1008.13
2023-02-22T06:47:49.362Z,1008.09
2023-02-22T06:48:49.355Z,1008.07
2023-02-22T06:49:49.349Z,1008.07
2023-02-22T06:50:49.346Z,1008.12
2023-02-22T06:51:49.337Z,1008.15
2023-02-22T06:52:49.335Z,1008.10
2023-02-22T06:53:49.322Z,1008.07
2023-02-22T06:54:49.337Z,1008.07
2023-02-22T06:55:49.315Z,1008.04
2023-02-22T06:56:49.306Z,1008.04
2023-02-22T06:57:49.302Z,1008.03
2023-02-22T06:58:49.297Z,1007.98
2023-02-22T06:59:49.291Z,1008.00
2023-02-22T07:00:49.332Z,1008.00
2023-02-22T07:01:49.280Z,1008.01
2023-02-22T07:02:49.281Z,1007.99
2023-02-22T07:03:49.267Z,1007.97
2023-02-22T07:04:49.263Z,1007.98
2023-02-22T07:05:49.271Z,1007.98
2023-02-22T07:06:49.253Z,1007.99
2023-02-22T07:07:49.249Z,1007.98
2023-02-22T07:08:49.242Z,1008.00
2023-02-22T07:09:49.236Z,1007.96
2023-02-22T07:10:49.249Z,1007.96
2023-02-22T07:11:49.224Z,1007.98
2023-02-22T07:12:49.220Z,1007.98
2023-02-22T07:13:49.344Z,1007.96
2023-02-22T07:14:49.210Z,1007.96
2023-02-22T07:15:49.203Z,1007.93
2023-02-22T07:16:49.203Z,1007.91
2023-02-22T07:17:49.188Z,1007.89
2023-02-22T07:18:49.187Z,1007.93
2023-02-22T07:19:49.178Z,1007.94
2023-02-22T07:20:49.201Z,1007.93
2023-02-22T07:21:49.173Z,1007.96
2023-02-22T07:22:49.158Z,1007.95
2023-02-22T07:23:49.156Z,1007.96
2023-02-22T07:24:49.153Z,1007.92
2023-02-22T07:25:49.143Z,1007.92
2023-02-22T07:26:49.156Z,1007.96
2023-02-22T07:27:49.130Z,1007.94
2023-02-22T07:28:49.134Z,1007.91
2023-02-22T07:29:49.471Z,1007.93
2023-02-22T07:30:49.193Z,1007.95
2023-02-22T07:31:49.161Z,1007.95
2023-02-22T07:32:49.155Z,1007.94
2023-02-22T07:33:49.192Z,1007.98
2023-02-22T07:34:49.095Z,1007.92
2023-02-22T07:35:49.110Z,1007.95
2023-02-22T07:36:49.090Z,1007.97
2023-02-22T07:37:49.072Z,1007.89
2023-02-22T07:38:49.069Z,1007.92
2023-02-22T07:39:49.066Z,1007.89
2023-02-22T07:40:49.063Z,1007.88
2023-02-22T07:41:49.050Z,1007.88
2023-02-22T07:42:49.070Z,1007.88
2023-02-22T07:43:49.047Z,1007.90
2023-02-22T07:44:49.033Z,1007.93
2023-02-22T07:45:49.144Z,1007.95
2023-02-22T07:46:49.040Z,1007.90
2023-02-22T07:47:49.021Z,1007.92
2023-02-22T07:48:49.014Z,1007.89
2023-02-22T07:49:49.006Z,1007.89
2023-02-22T07:50:49.008Z,1007.87
2023-02-22T07:51:48.994Z,1007.84
2023-02-22T07:52:48.989Z,1007.87
2023-02-22T07:53:48.983Z,1007.82
2023-02-22T07:54:49.029Z,1007.81
2023-02-22T07:55:48.976Z,1007.82
2023-02-22T07:56:48.988Z,1007.82
2023-02-22T07:57:48.967Z,1007.81
2023-02-22T07:58:48.980Z,1007.76
2023-02-22T07:59:48.960Z,1007.75
2023-02-22T08:00:48.940Z,1007.75
2023-02-22T08:01:48.941Z,1007.73
2023-02-22T08:02:48.996Z,1007.76
2023-02-22T08:03:49.006Z,1007.78
2023-02-22T08:04:48.918Z,1007.75
2023-02-22T08:05:48.921Z,1007.77
2023-02-22T08:06:48.917Z,1007.78
2023-02-22T08:07:48.907Z,1007.73
2023-02-22T08:08:48.909Z,1007.75
2023-02-22T08:09:48.893Z,1007.75
2023-02-22T08:10:48.891Z,1007.74
2023-02-22T08:11:48.887Z,1007.75
2023-02-22T08:12:48.874Z,1007.73
2023-02-22T08:13:48.877Z,1007.71
2023-02-22T08:14:48.889Z,1007.69
2023-02-22T08:15:48.867Z,1007.70
2023-02-22T08:16:48.889Z,1007.68
2023-02-22T08:17:48.849Z,1007.69
2023-02-22T08:18:48.855Z,1007.69
2023-02-22T08:19:48.839Z,1007.67
2023-02-22T08:20:48.831Z,1007.67
2023-02-22T08:21:48.828Z,1007.65
2023-02-22T08:22:48.828Z,1007.66
2023-02-22T08:23:48.819Z,1007.62
2023-02-22T08:24:48.809Z,1007.59
2023-02-22T08:25:48.805Z,1007.58
2023-02-22T08:26:48.804Z,1007.56
2023-02-22T08:27:48.815Z,1007.55
2023-02-22T08:28:48.791Z,1007.56
2023-02-22T08:29:48.795Z,1007.56
2023-02-22T08:30:48.851Z,1007.57
2023-02-22T08:31:48.858Z,1007.56
2023-02-22T08:32:48.954Z,1007.57
2023-02-22T08:33:48.771Z,1007.53
2023-02-22T08:34:48.757Z,1007.52
2023-02-22T08:35:48.761Z,1007.51
2023-02-22T08:36:48.746Z,1007.52
2023-02-22T08:37:48.745Z,1007.51
2023-02-22T08:38:48.743Z,1007.54
2023-02-22T08:39:48.734Z,1007.51
2023-02-22T08:40:48.737Z,1007.51
2023-02-22T08:41:48.724Z,1007.49
2023-02-22T08:42:48.730Z,1007.47
2023-02-22T08:43:48.718Z,1007.49
2023-02-22T08:44:48.710Z,1007.46
2023-02-22T08:45:48.802Z,1007.49
2023-02-22T08:46:48.719Z,1007.46
2023-02-22T08:47:48.692Z,1007.46
2023-02-22T08:48:48.683Z,1007.47
2023-02-22T08:49:48.677Z,1007.44
2023-02-22T08:50:48.674Z,1007.46
2023-02-22T08:51:48.670Z,1007.43
2023-02-22T08:52:48.671Z,1007.39
2023-02-22T08:53:48.659Z,1007.41
2023-02-22T08:54:48.656Z,1007.41
2023-02-22T08:55:48.649Z,1007.34
2023-02-22T08:56:48.640Z,1007.38
2023-02-22T08:57:48.637Z,1007.39
2023-02-22T08:58:48.630Z,1007.36
2023-02-22T08:59:48.638Z,1007.37
2023-02-22T09:00:48.619Z,1007.42
2023-02-22T09:01:48.678Z,1007.36
2023-02-22T09:02:48.650Z,1007.33
2023-02-22T09:03:48.654Z,1007.35
2023-02-22T09:04:48.603Z,1007.38
2023-02-22T09:05:48.647Z,1007.38
2023-02-22T09:06:48.614Z,1007.34
2023-02-22T09:07:48.586Z,1007.35
2023-02-22T09:08:48.587Z,1007.33
2023-02-22T09:09:48.575Z,1007.37
2023-02-22T09:10:48.569Z,1007.36
2023-02-22T09:11:48.568Z,1007.35
2023-02-22T09:12:48.563Z,1007.36
2023-02-22T09:13:48.566Z,1007.34
2023-02-22T09:14:48.552Z,1007.36
2023-02-22T09:15:48.546Z,1007.34
2023-02-22T09:16:48.579Z,1007.33
2023-02-22T09:17:48.546Z,1007.31
2023-02-22T09:18:48.550Z,1007.31
2023-02-22T09:19:48.529Z,1007.34
2023-02-22T09:20:48.527Z,1007.34
2023-02-22T09:21:48.520Z,1007.34
2023-02-22T09:22:48.512Z,1007.35
2023-02-22T09:23:48.508Z,1007.33
2023-02-22T09:24:48.500Z,1007.36
2023-02-22T09:25:48.499Z,1007.35
2023-02-22T09:26:48.492Z,1007.30
2023-02-22T09:27:48.496Z,1007.29
2023-02-22T09:28:48.482Z,1007.32
2023-02-22T09:29:48.487Z,1007.30
2023-02-22T09:30:48.554Z,1007.31
2023-02-22T09:31:48.569Z,1007.31
2023-02-22T09:32:48.690Z,1007.30
2023-02-22T09:33:48.460Z,1007.27
2023-02-22T09:34:48.473Z,1007.30
2023-02-22T09:35:48.454Z,1007.28
2023-02-22T09:36:48.448Z,1007.28
2023-02-22T09:37:48.451Z,1007.31
2023-02-22T09:38:48.435Z,1007.30
2023-02-22T09:39:48.529Z,1007.34
2023-02-22T09:40:48.436Z,1007.34
2023-02-22T09:41:48.436Z,1007.35
2023-02-22T09:42:48.420Z,1007.33
2023-02-22T09:43:48.415Z,1007.36
2023-02-22T09:44:48.419Z,1007.34
2023-02-22T09:45:48.459Z,1007.32
2023-02-22T09:46:48.397Z,1007.30
2023-02-22T09:47:48.418Z,1007.30
2023-02-22T09:48:48.388Z,1007.31
2023-02-22T09:49:48.395Z,1007.26
2023-02-22T09:50:48.403Z,1007.29
2023-02-22T09:51:48.378Z,1007.29
2023-02-22T09:52:48.382Z,1007.28
2023-02-22T09:53:48.369Z,1007.29
2023-02-22T09:54:48.363Z,1007.33
2023-02-22T09:55:48.359Z,1007.31
2023-02-22T09:56:48.361Z,1007.32
2023-02-22T09:57:48.352Z,1007.32
2023-02-22T09:58:48.345Z,1007.34
2023-02-22T09:59:48.340Z,1007.34
2023-02-22T10:00:48.367Z,1007.36
2023-02-22T10:01:48.332Z,1007.29
2023-02-22T10:02:48.329Z,1007.34
2023-02-22T10:03:48.356Z,1007.31
2023-02-22T10:04:48.321Z,1007.36
2023-02-22T10:05:48.314Z,1007.27
2023-02-22T10:06:48.325Z,1007.26
2023-02-22T10:07:48.306Z,1007.29
2023-02-22T10:08:48.300Z,1007.25
2023-02-22T10:09:48.299Z,1007.26
2023-02-22T10:10:48.293Z,1007.29
2023-02-22T10:11:48.288Z,1007.26
2023-02-22T10:12:48.281Z,1007.23
2023-02-22T10:13:48.281Z,1007.27
2023-02-22T10:14:48.271Z,1007.24
2023-02-22T10:15:48.268Z,1007.22
2023-02-22T10:16:48.294Z,1007.22
2023-02-22T10:17:48.262Z,1007.23
2023-02-22T10:18:48.259Z,1007.22
2023-02-22T10:19:48.264Z,1007.23
2023-02-22T10:20:48.248Z,1007.20
2023-02-22T10:21:48.247Z,1007.18
2023-02-22T10:22:48.269Z,1007.17
2023-02-22T10:23:48.235Z,1007.21
2023-02-22T10:24:48.227Z,1007.16
2023-02-22T10:25:48.225Z,1007.15
2023-02-22T10:26:48.219Z,1007.15
2023-02-22T10:27:48.224Z,1007.12
2023-02-22T10:28:48.213Z,1007.14
2023-02-22T10:29:48.211Z,1007.09
2023-02-22T10:30:48.278Z,1007.15
2023-02-22T10:31:48.390Z,1007.10
2023-02-22T10:32:48.210Z,1007.05
2023-02-22T10:33:48.247Z,1007.08
2023-02-22T10:34:48.540Z,1007.11
2023-02-22T10:35:48.220Z,1007.08
2023-02-22T10:36:48.207Z,1007.05
2023-02-22T10:37:48.272Z,1007.03
2023-02-22T10:38:48.260Z,1007.05
2023-02-22T10:39:48.228Z,1007.03
2023-02-22T10:40:48.167Z,1007.02
2023-02-22T10:41:48.167Z,1007.02
2023-02-22T10:42:48.157Z,1007.02
2023-02-22T10:43:48.152Z,1007.01
2023-02-22T10:44:48.143Z,1006.97
2023-02-22T10:45:48.186Z,1006.93
2023-02-22T10:46:48.136Z,1006.95
2023-02-22T10:47:48.136Z,1006.90
2023-02-22T10:48:48.127Z,1006.90
2023-02-22T10:49:48.124Z,1006.87
2023-02-22T10:50:48.121Z,1006.85
2023-02-22T10:51:48.116Z,1006.82
2023-02-22T10:52:48.111Z,1006.79
2023-02-22T10:53:48.108Z,1006.80
2023-02-22T10:54:48.127Z,1006.79
2023-02-22T10:55:48.127Z,1006.77
2023-02-22T10:56:48.095Z,1006.74
2023-02-22T10:57:48.095Z,1006.76
2023-02-22T10:58:48.087Z,1006.74
2023-02-22T10:59:48.086Z,1006.73
2023-02-22T11:00:48.079Z,1006.72
2023-02-22T11:01:48.234Z,1006.75
2023-02-22T11:02:48.067Z,1006.73
2023-02-22T11:03:48.068Z,1006.72
2023-02-22T11:04:48.086Z,1006.70
2023-02-22T11:05:48.056Z,1006.68
2023-02-22T11:06:48.051Z,1006.70
2023-02-22T11:07:48.053Z,1006.70
2023-02-22T11:08:48.043Z,1006.70
2023-02-22T11:09:48.043Z,1006.70
2023-02-22T11:10:48.054Z,1006.69
2023-02-22T11:11:48.029Z,1006.66
2023-02-22T11:12:48.045Z,1006.68
2023-02-22T11:13:48.028Z,1006.68
2023-02-22T11:14:48.017Z,1006.70
2023-02-22T11:15:48.017Z,1006.66
2023-02-22T11:16:48.037Z,1006.64
2023-02-22T11:17:48.011Z,1006.63
2023-02-22T11:18:48.015Z,1006.65
2023-02-22T11:19:48.005Z,1006.61
2023-02-22T11:20:48.000Z,1006.58
2023-02-22T11:21:47.987Z,1006.55
2023-02-22T11:22:47.996Z,1006.54
2023-02-22T11:23:47.982Z,1006.58
2023-02-22T11:24:49.427Z,1006.56
2023-02-22T11:25:47.974Z,1006.53
2023-02-22T11:26:47.993Z,1006.53
2023-02-22T11:27:47.973Z,1006.54
2023-02-22T11:28:47.959Z,1006.56
2023-02-22T11:29:47.954Z,1006.54
2023-02-22T11:30:48.042Z,1006.56
2023-02-22T11:31:48.029Z,1006.57
2023-02-22T11:32:47.967Z,1006.52
2023-02-22T11:33:47.938Z,1006.52
2023-02-22T11:34:49.376Z,1006.51
2023-02-22T11:35:48.283Z,1006.49
2023-02-22T11:36:47.925Z,1006.50
2023-02-22T11:37:47.921Z,1006.47
2023-02-22T11:38:47.914Z,1006.48
2023-02-22T11:39:47.996Z,1006.45
2023-02-22T11:40:47.907Z,1006.50
2023-02-22T11:41:47.906Z,1006.52
2023-02-22T11:42:47.927Z,1006.42
2023-02-22T11:43:47.900Z,1006.40
2023-02-22T11:44:47.889Z,1006.43
2023-02-22T11:45:57.815Z,1006.42
2023-02-22T11:46:47.926Z,1006.39
2023-02-22T11:47:47.888Z,1006.47
2023-02-22T11:48:47.872Z,1006.41
2023-02-22T11:49:47.872Z,1006.42
2023-02-22T11:50:47.865Z,1006.38
2023-02-22T11:51:47.863Z,1006.38
2023-02-22T11:52:47.858Z,1006.38
2023-02-22T11:53:47.853Z,1006.38
2023-02-22T11:54:47.910Z,1006.38
2023-02-22T11:55:47.845Z,1006.38
2023-02-22T11:56:47.896Z,1006.32
2023-02-22T11:57:47.846Z,1006.35
2023-02-22T11:58:47.903Z,1006.34
2023-02-22T11:59:47.831Z,1006.26
2023-02-22T12:00:47.825Z,1006.27
2023-02-22T12:01:47.834Z,1006.23
2023-02-22T12:02:56.717Z,1006.20
2023-02-22T12:03:47.915Z,1006.21
2023-02-22T12:04:47.912Z,1006.22
2023-02-22T12:05:47.805Z,1006.26